KFHB

Fernandina Beach Municipal Airport

Fernandina Beach, Florida, USA
METAR KFHB 100655Z AUTO 31012KT 10SM BKN012 BKN019 OVC038 08/07 A2996 RMK AO2 T00800068
Observed Flight Rules
Dec-10 @ 06:55 UTC (20 minutes ago) Marginal Visual Flight Rules
Wind Visibility Clouds
310° at 12 knots 10 miles
  • Broken at 1,200' AGL
  • Broken at 1,900' AGL
  • Overcast at 3,800' AGL
Temperatures Readings
Current 8°C / 46°F
Dewpoint 7°C / 45°F
Humidity 93%
Altimeter 29.96" Hg
Pressure 1015 hPa
Elevation 5
METAR KFHB 100655Z AUTO 31012KT 10SM BKN012 BKN019 OVC038 08/07 A2996 RMK AO2 T00800068
Observed Flight Rules
Dec-10 @ 06:55 UTC
(20 minutes ago)
MVFR
Wind Visibility
310° at 12 knots 10 miles
Clouds
  • Broken at 1,200' AGL
  • Broken at 1,900' AGL
  • Overcast at 3,800' AGL
Temperature Dewpoint
8°C / 46°F 7°C / 45°F
Humidity Altimeter Pressure
93% 29.96" Hg 1015 hPa